createdAt,value
2023-04-19T00:00:19.221Z,7.47
2023-04-19T00:02:47.697Z,6.97
2023-04-19T00:05:14.288Z,6.55
2023-04-19T00:07:40.946Z,4.38
2023-04-19T00:10:09.888Z,7.25
2023-04-19T00:12:36.418Z,5.78
2023-04-19T00:15:02.982Z,6.10
2023-04-19T00:17:29.425Z,6.00
2023-04-19T00:19:55.930Z,7.25
2023-04-19T00:22:22.439Z,5.75
2023-04-19T00:24:50.707Z,5.32
2023-04-19T00:27:21.023Z,6.15
2023-04-19T00:32:13.884Z,6.50
2023-04-19T00:34:40.332Z,8.55
2023-04-19T00:37:10.013Z,4.63
2023-04-19T00:39:36.573Z,6.65
2023-04-19T00:42:05.030Z,6.70
2023-04-19T00:44:32.778Z,7.25
2023-04-19T00:47:00.047Z,6.97
2023-04-19T00:49:27.351Z,6.05
2023-04-19T00:51:54.052Z,5.95
2023-04-19T00:54:20.839Z,6.60
2023-04-19T00:56:49.175Z,6.03
2023-04-19T00:59:17.434Z,7.18
2023-04-19T01:01:49.380Z,5.35
2023-04-19T01:04:18.941Z,7.20
2023-04-19T01:06:46.531Z,5.53
2023-04-19T01:09:12.942Z,6.63
2023-04-19T01:11:43.210Z,5.88
2023-04-19T01:14:10.151Z,6.70
2023-04-19T01:16:36.545Z,8.68
2023-04-19T01:19:04.348Z,6.82
2023-04-19T01:21:30.832Z,6.50
2023-04-19T01:23:58.641Z,6.13
2023-04-19T01:26:25.169Z,6.15
2023-04-19T01:28:51.624Z,7.88
2023-04-19T01:31:18.068Z,7.55
2023-04-19T01:33:47.414Z,7.70
2023-04-19T01:36:13.963Z,6.15
2023-04-19T01:38:41.394Z,8.25
2023-04-19T01:41:10.747Z,7.85
2023-04-19T01:43:37.222Z,6.45
2023-04-19T01:46:03.698Z,6.78
2023-04-19T01:48:30.151Z,8.05
2023-04-19T01:50:56.683Z,8.00
2023-04-19T01:53:23.122Z,7.20
2023-04-19T01:55:49.718Z,6.82
2023-04-19T01:58:17.497Z,7.10
2023-04-19T02:00:44.808Z,5.05
2023-04-19T02:03:11.490Z,7.13
2023-04-19T02:05:39.143Z,5.60
2023-04-19T02:08:05.814Z,9.55
2023-04-19T02:10:32.265Z,7.70
2023-04-19T02:12:58.768Z,6.35
2023-04-19T02:15:26.632Z,6.28
2023-04-19T02:17:53.232Z,6.78
2023-04-19T02:20:19.892Z,8.88
2023-04-19T02:22:49.857Z,7.45
2023-04-19T02:25:22.255Z,7.88
2023-04-19T02:27:50.119Z,9.15
2023-04-19T02:30:19.527Z,6.57
2023-04-19T02:32:49.017Z,8.95
2023-04-19T02:35:15.583Z,6.95
2023-04-19T02:37:42.001Z,8.05
2023-04-19T02:40:09.123Z,9.07
2023-04-19T02:42:35.536Z,9.45
2023-04-19T02:45:02.004Z,6.90
2023-04-19T02:47:28.554Z,7.45
2023-04-19T02:56:30.346Z,7.95
2023-04-19T02:59:00.774Z,10.25
2023-04-19T03:01:27.565Z,9.32
2023-04-19T03:03:54.199Z,7.38
2023-04-19T03:06:20.785Z,9.20
2023-04-19T03:08:47.203Z,8.10
2023-04-19T03:11:16.155Z,10.88
2023-04-19T03:13:43.902Z,9.85
2023-04-19T03:16:12.206Z,8.38
2023-04-19T03:18:39.028Z,9.93
2023-04-19T03:21:06.063Z,9.77
2023-04-19T03:23:40.932Z,9.57
2023-04-19T03:26:07.382Z,10.15
2023-04-19T03:28:38.649Z,9.15
2023-04-19T03:31:30.222Z,9.07
2023-04-19T03:33:58.045Z,9.15
2023-04-19T03:36:29.454Z,8.60
2023-04-19T03:38:56.569Z,8.43
2023-04-19T03:41:25.537Z,7.38
2023-04-19T03:44:08.147Z,7.50
2023-04-19T03:46:36.580Z,9.60
2023-04-19T03:49:03.336Z,6.93
2023-04-19T03:51:30.060Z,8.25
2023-04-19T03:53:56.439Z,7.72
2023-04-19T03:56:22.998Z,7.55
2023-04-19T03:58:50.873Z,8.13
2023-04-19T04:01:18.401Z,8.35
2023-04-19T04:03:46.829Z,8.50
2023-04-19T04:06:13.500Z,7.30
2023-04-19T04:08:40.087Z,7.60
2023-04-19T04:11:06.534Z,7.03
2023-04-19T04:13:33.015Z,7.20
2023-04-19T04:16:16.133Z,6.03
2023-04-19T04:18:42.893Z,7.63
2023-04-19T04:21:14.141Z,6.63
2023-04-19T04:23:43.040Z,6.57
2023-04-19T04:26:16.437Z,7.75
2023-04-19T04:28:53.109Z,5.53
2023-04-19T04:31:20.147Z,5.38
2023-04-19T04:33:47.533Z,5.50
2023-04-19T04:36:20.010Z,6.45
2023-04-19T04:38:49.439Z,6.70
2023-04-19T04:41:20.836Z,6.25
2023-04-19T04:44:04.607Z,6.20
2023-04-19T04:49:04.082Z,4.20
2023-04-19T04:51:31.843Z,5.35
2023-04-19T04:53:59.199Z,4.63
2023-04-19T04:56:25.707Z,5.32
2023-04-19T04:58:52.274Z,6.63
2023-04-19T05:01:26.982Z,6.03
2023-04-19T05:03:53.940Z,6.22
2023-04-19T05:06:22.200Z,6.75
2023-04-19T05:08:50.055Z,4.38
2023-04-19T05:11:27.208Z,5.78
2023-04-19T05:13:53.986Z,5.13
2023-04-19T05:16:21.056Z,4.25
2023-04-19T05:18:48.947Z,4.05
2023-04-19T05:21:18.745Z,5.80
2023-04-19T05:23:47.456Z,3.53
2023-04-19T05:26:17.667Z,3.50
2023-04-19T05:28:47.076Z,5.13
2023-04-19T05:31:21.282Z,5.75
2023-04-19T05:34:04.753Z,3.35
2023-04-19T05:36:31.741Z,6.30
2023-04-19T05:38:58.118Z,2.65
2023-04-19T05:41:27.983Z,4.70
2023-04-19T05:43:54.426Z,3.88
2023-04-19T05:46:26.071Z,4.70
2023-04-19T05:48:55.899Z,4.22
2023-04-19T05:51:41.214Z,3.15
2023-04-19T05:54:11.962Z,4.68
2023-04-19T05:56:44.646Z,2.80
2023-04-19T05:59:11.233Z,4.85
2023-04-19T06:01:37.853Z,2.42
2023-04-19T06:04:04.765Z,4.65
2023-04-19T06:06:31.265Z,3.22
2023-04-19T06:08:57.682Z,3.17
2023-04-19T06:11:34.616Z,4.60
2023-04-19T06:14:08.365Z,4.35
2023-04-19T06:16:34.814Z,4.65
2023-04-19T06:19:01.253Z,9.65
2023-04-19T06:21:30.252Z,2.97
2023-04-19T06:23:56.672Z,4.50
2023-04-19T06:26:23.103Z,4.80
2023-04-19T06:28:49.514Z,2.60
2023-04-19T06:31:17.227Z,3.85
2023-04-19T06:33:43.629Z,2.92
2023-04-19T06:36:43.212Z,3.92
2023-04-19T06:39:12.470Z,3.90
2023-04-19T06:41:38.872Z,5.05
2023-04-19T06:44:05.804Z,4.43
2023-04-19T06:46:33.627Z,2.97
2023-04-19T06:49:04.218Z,4.43
2023-04-19T06:51:30.773Z,4.03
2023-04-19T06:53:59.937Z,3.78
2023-04-19T06:56:43.127Z,4.35
2023-04-19T06:59:09.525Z,4.07
2023-04-19T07:01:38.010Z,4.78
2023-04-19T07:04:04.826Z,3.17
2023-04-19T07:06:31.507Z,4.50
2023-04-19T07:09:01.005Z,2.75
2023-04-19T07:11:27.384Z,4.22
2023-04-19T07:13:53.789Z,2.88
2023-04-19T07:16:25.801Z,4.28
2023-04-19T07:18:53.829Z,4.55
2023-04-19T07:21:20.350Z,2.22
2023-04-19T07:23:47.431Z,2.53
2023-04-19T07:26:15.890Z,4.22
2023-04-19T07:28:44.353Z,4.50
2023-04-19T07:31:33.489Z,2.78
2023-04-19T07:34:04.151Z,3.83
2023-04-19T07:36:30.558Z,4.18
2023-04-19T07:38:57.029Z,3.58
2023-04-19T07:41:23.404Z,4.50
2023-04-19T07:43:49.783Z,4.00
2023-04-19T07:46:16.375Z,4.47
2023-04-19T07:48:42.832Z,3.25
2023-04-19T07:51:12.370Z,2.58
2023-04-19T07:53:39.856Z,4.13
2023-04-19T07:56:07.576Z,4.88
2023-04-19T07:58:33.965Z,2.83
2023-04-19T08:01:00.559Z,4.05
2023-04-19T08:03:27.250Z,4.80
2023-04-19T08:05:54.016Z,3.33
2023-04-19T08:08:21.829Z,2.47
2023-04-19T08:10:48.223Z,3.85
2023-04-19T08:13:14.603Z,4.55
2023-04-19T08:18:10.348Z,3.85
2023-04-19T08:20:36.946Z,4.82
2023-04-19T08:23:10.957Z,3.83
2023-04-19T08:25:48.126Z,3.20
2023-04-19T08:28:14.634Z,5.47
2023-04-19T08:30:41.095Z,4.07
2023-04-19T08:33:07.722Z,4.13
2023-04-19T08:35:34.700Z,3.47
2023-04-19T08:38:02.577Z,2.38
2023-04-19T08:40:30.386Z,2.90
2023-04-19T08:43:05.594Z,5.85
2023-04-19T08:45:33.154Z,3.65
2023-04-19T08:48:02.369Z,4.22
2023-04-19T08:53:08.457Z,3.75
2023-04-19T08:55:54.824Z,4.75
2023-04-19T08:58:40.698Z,4.35
2023-04-19T09:01:22.831Z,3.30
2023-04-19T09:04:07.185Z,4.00
2023-04-19T09:06:43.653Z,4.53
2023-04-19T09:11:48.798Z,4.13
2023-04-19T09:14:18.285Z,2.80
2023-04-19T09:16:45.513Z,3.88
2023-04-19T09:19:23.035Z,4.25
2023-04-19T09:21:51.627Z,2.95
2023-04-19T09:24:18.044Z,3.53
2023-04-19T09:26:54.409Z,3.97
2023-04-19T09:29:22.205Z,4.43
2023-04-19T09:31:57.116Z,4.70
2023-04-19T09:34:23.594Z,4.43
2023-04-19T09:36:54.633Z,4.63
2023-04-19T09:39:31.503Z,3.92
2023-04-19T09:41:58.041Z,4.70
2023-04-19T09:46:55.256Z,3.72
2023-04-19T09:49:36.833Z,3.95
2023-04-19T09:52:04.991Z,3.72
2023-04-19T09:54:32.248Z,5.25
2023-04-19T09:57:00.858Z,2.90
2023-04-19T09:59:29.260Z,5.00
2023-04-19T10:01:56.169Z,3.75
2023-04-19T10:04:33.390Z,3.75
2023-04-19T10:09:53.011Z,4.15
2023-04-19T10:12:51.729Z,2.22
2023-04-19T10:15:14.340Z,3.80
2023-04-19T10:17:41.615Z,3.50
2023-04-19T10:20:13.275Z,3.50
2023-04-19T10:22:40.278Z,3.70
2023-04-19T10:25:11.793Z,3.38
2023-04-19T10:27:38.497Z,2.85
2023-04-19T10:30:07.596Z,3.58
2023-04-19T10:32:40.202Z,3.03
2023-04-19T10:35:12.005Z,2.97
2023-04-19T10:37:40.752Z,2.88
2023-04-19T10:40:08.312Z,4.35
2023-04-19T10:43:12.208Z,4.20
2023-04-19T10:45:39.257Z,3.42
2023-04-19T10:48:27.143Z,3.13
2023-04-19T10:51:00.166Z,4.40
2023-04-19T10:53:50.084Z,3.10
2023-04-19T10:56:18.289Z,4.45
2023-04-19T10:59:12.609Z,3.28
2023-04-19T11:01:40.778Z,3.78
2023-04-19T11:04:10.519Z,3.95
2023-04-19T11:09:04.784Z,3.45
2023-04-19T11:11:33.529Z,2.65
2023-04-19T11:14:00.666Z,4.40
2023-04-19T11:16:38.332Z,2.95
2023-04-19T11:19:16.379Z,3.88
2023-04-19T11:21:43.159Z,3.42
2023-04-19T11:24:10.574Z,3.38
2023-04-19T11:26:37.140Z,3.25
2023-04-19T11:29:03.984Z,4.53
2023-04-19T11:31:32.053Z,5.15
2023-04-19T11:33:59.057Z,4.57
2023-04-19T11:36:26.849Z,3.15
2023-04-19T11:38:54.022Z,3.60
2023-04-19T11:41:20.557Z,3.53
2023-04-19T11:43:47.104Z,2.95
2023-04-19T11:46:14.254Z,4.05
2023-04-19T11:48:51.192Z,3.67
2023-04-19T11:51:17.636Z,4.35
2023-04-19T11:53:45.737Z,3.80
2023-04-19T11:56:12.204Z,2.47
2023-04-19T11:58:40.589Z,4.43
2023-04-19T12:01:08.436Z,5.20
2023-04-19T12:03:40.086Z,4.63
2023-04-19T12:06:10.813Z,4.82
2023-04-19T12:08:38.359Z,3.10
2023-04-19T12:11:06.689Z,3.60
2023-04-19T12:13:34.159Z,3.83
2023-04-19T12:16:00.889Z,3.78
2023-04-19T12:18:27.358Z,3.28
2023-04-19T12:20:54.070Z,4.35
2023-04-19T12:23:21.194Z,3.20
2023-04-19T12:25:48.847Z,5.50
2023-04-19T12:28:16.646Z,4.22
2023-04-19T12:30:43.242Z,4.10
2023-04-19T12:33:09.808Z,4.57
2023-04-19T12:35:36.269Z,3.15
2023-04-19T12:38:04.534Z,4.35
2023-04-19T12:40:31.013Z,4.53
2023-04-19T12:42:57.599Z,4.50
2023-04-19T12:45:25.617Z,3.40
2023-04-19T12:47:52.112Z,4.82
2023-04-19T12:50:18.683Z,4.50
2023-04-19T12:52:45.329Z,5.25
2023-04-19T12:55:11.789Z,5.03
2023-04-19T12:57:38.153Z,4.53
2023-04-19T13:00:06.504Z,4.65
2023-04-19T13:02:37.938Z,5.32
2023-04-19T13:05:04.933Z,5.25
2023-04-19T13:07:31.505Z,4.50
2023-04-19T13:09:57.913Z,5.00
2023-04-19T13:12:24.427Z,5.47
2023-04-19T13:14:51.140Z,5.18
2023-04-19T13:17:17.787Z,4.43
2023-04-19T13:19:45.616Z,3.42
2023-04-19T13:22:12.060Z,3.35
2023-04-19T13:24:38.490Z,4.05
2023-04-19T13:27:07.301Z,4.10
2023-04-19T13:29:35.124Z,3.70
2023-04-19T13:32:01.641Z,4.10
2023-04-19T13:34:28.445Z,3.40
2023-04-19T13:36:56.830Z,3.50
2023-04-19T13:39:23.352Z,4.78
2023-04-19T13:41:50.862Z,3.72
2023-04-19T13:44:20.017Z,4.05
2023-04-19T13:46:46.511Z,3.67
2023-04-19T13:49:13.030Z,3.67
2023-04-19T13:51:49.688Z,4.07
2023-04-19T13:54:19.837Z,3.58
2023-04-19T13:56:47.426Z,3.75
2023-04-19T13:59:15.317Z,3.25
2023-04-19T14:01:41.853Z,3.80
2023-04-19T14:04:08.527Z,3.03
2023-04-19T14:06:35.137Z,3.45
2023-04-19T14:09:01.581Z,3.05
2023-04-19T14:11:30.166Z,4.18
2023-04-19T14:13:56.627Z,3.85
2023-04-19T14:16:23.065Z,3.53
2023-04-19T14:18:49.514Z,4.30
2023-04-19T14:21:16.162Z,4.30
2023-04-19T14:23:42.545Z,2.22
2023-04-19T14:26:08.977Z,2.85
2023-04-19T14:28:36.724Z,7.30
2023-04-19T14:31:03.177Z,4.10
2023-04-19T14:33:29.692Z,2.75
2023-04-19T14:35:56.198Z,4.60
2023-04-19T14:38:22.655Z,4.63
2023-04-19T14:40:49.102Z,4.45
2023-04-19T14:43:15.612Z,3.75
2023-04-19T14:45:43.353Z,4.78
2023-04-19T14:48:09.917Z,4.05
2023-04-19T14:50:36.453Z,5.05
2023-04-19T14:53:02.947Z,4.05
2023-04-19T14:55:29.402Z,4.90
2023-04-19T14:57:55.822Z,3.15
2023-04-19T15:00:22.318Z,4.97
2023-04-19T15:02:52.601Z,3.17
2023-04-19T15:05:22.489Z,5.03
2023-04-19T15:07:49.301Z,5.20
2023-04-19T15:10:16.224Z,5.15
2023-04-19T15:13:57.700Z,5.60
2023-04-19T15:16:04.821Z,7.13
2023-04-19T15:21:24.344Z,4.63
2023-04-19T15:23:53.605Z,5.75
2023-04-19T15:26:22.086Z,6.57
2023-04-19T15:28:57.840Z,6.25
2023-04-19T15:31:24.904Z,6.75
2023-04-19T15:33:52.722Z,7.30
2023-04-19T15:36:22.227Z,4.97
2023-04-19T15:38:50.930Z,6.43
2023-04-19T15:41:19.508Z,5.85
2023-04-19T15:43:48.798Z,5.07
2023-04-19T15:46:20.258Z,6.25
2023-04-19T15:48:53.422Z,4.53
2023-04-19T15:51:24.030Z,5.25
2023-04-19T15:53:52.335Z,4.15
2023-04-19T15:56:26.056Z,6.47
2023-04-19T15:58:52.650Z,7.80
2023-04-19T16:01:21.112Z,6.40
2023-04-19T16:03:47.952Z,5.00
2023-04-19T16:06:23.682Z,5.55
2023-04-19T16:08:50.557Z,6.32
2023-04-19T16:11:17.153Z,5.85
2023-04-19T16:13:43.636Z,4.88
2023-04-19T16:16:10.214Z,6.38
2023-04-19T16:18:36.680Z,6.10
2023-04-19T16:21:07.424Z,4.35
2023-04-19T16:23:35.124Z,5.38
2023-04-19T16:26:01.873Z,5.40
2023-04-19T16:28:31.519Z,4.78
2023-04-19T16:30:58.113Z,7.43
2023-04-19T16:33:27.422Z,6.18
2023-04-19T16:35:54.609Z,6.10
2023-04-19T16:38:21.203Z,6.22
2023-04-19T16:40:51.734Z,5.60
2023-04-19T16:43:24.580Z,5.90
2023-04-19T16:45:55.476Z,6.20
2023-04-19T16:48:22.220Z,6.05
2023-04-19T16:50:51.071Z,4.20
2023-04-19T16:53:19.125Z,4.75
2023-04-19T16:55:45.737Z,4.43
2023-04-19T16:58:14.313Z,5.78
2023-04-19T17:00:43.535Z,4.75
2023-04-19T17:03:10.579Z,6.50
2023-04-19T17:05:37.699Z,4.43
2023-04-19T17:08:04.807Z,6.20
2023-04-19T17:10:31.503Z,6.03
2023-04-19T17:12:58.109Z,6.65
2023-04-19T17:15:26.331Z,4.82
2023-04-19T17:17:53.106Z,5.82
2023-04-19T17:20:21.886Z,6.00
2023-04-19T17:22:49.669Z,5.53
2023-04-19T17:25:16.395Z,6.47
2023-04-19T17:27:43.129Z,6.65
2023-04-19T17:30:10.102Z,6.93
2023-04-19T17:32:38.166Z,6.95
2023-04-19T17:35:05.297Z,6.20
2023-04-19T17:37:31.793Z,4.70
2023-04-19T17:39:58.453Z,5.28
2023-04-19T17:42:25.063Z,4.47
2023-04-19T17:44:51.752Z,7.38
2023-04-19T17:47:18.969Z,4.20
2023-04-19T17:49:47.914Z,5.60
2023-04-19T17:52:16.019Z,6.25
2023-04-19T17:54:45.340Z,5.82
2023-04-19T17:57:11.873Z,5.28
2023-04-19T17:59:38.468Z,4.97
2023-04-19T18:02:05.144Z,6.15
2023-04-19T18:04:34.621Z,3.78
2023-04-19T18:07:02.482Z,5.88
2023-04-19T18:09:36.511Z,6.07
2023-04-19T18:12:03.162Z,4.90
2023-04-19T18:14:29.652Z,4.93
2023-04-19T18:16:58.415Z,4.40
2023-04-19T18:19:26.219Z,4.20
2023-04-19T18:21:52.873Z,4.65
2023-04-19T18:24:20.731Z,4.65
2023-04-19T18:26:48.395Z,4.63
2023-04-19T18:29:22.376Z,4.70
2023-04-19T18:31:50.763Z,6.50
2023-04-19T18:34:17.327Z,7.38
2023-04-19T18:36:43.793Z,7.13
2023-04-19T18:39:11.776Z,4.63
2023-04-19T18:41:41.400Z,7.95
2023-04-19T18:44:29.971Z,5.88
2023-04-19T18:47:01.136Z,5.40
2023-04-19T18:50:03.458Z,6.97
2023-04-19T18:52:31.623Z,5.65
2023-04-19T18:54:59.661Z,6.43
2023-04-19T18:57:30.584Z,8.82
2023-04-19T19:00:01.451Z,7.13
2023-04-19T19:02:28.405Z,6.60
2023-04-19T19:04:57.838Z,6.70
2023-04-19T19:07:36.440Z,5.97
2023-04-19T19:10:18.665Z,5.30
2023-04-19T19:12:48.565Z,6.03
2023-04-19T19:15:23.430Z,7.28
2023-04-19T19:17:51.692Z,6.10
2023-04-19T19:20:20.276Z,7.22
2023-04-19T19:22:51.423Z,6.22
2023-04-19T19:25:24.361Z,6.20
2023-04-19T19:28:06.221Z,4.82
2023-04-19T19:30:34.597Z,7.90
2023-04-19T19:33:02.023Z,7.85
2023-04-19T19:35:28.608Z,6.90
2023-04-19T19:37:55.184Z,4.90
2023-04-19T19:40:24.636Z,5.47
2023-04-19T19:42:52.438Z,5.07
2023-04-19T19:45:28.510Z,4.97
2023-04-19T19:47:55.126Z,4.97
2023-04-19T19:51:02.104Z,5.10
2023-04-19T19:53:11.821Z,4.65
2023-04-19T19:55:38.368Z,4.55
2023-04-19T20:03:06.725Z,3.55
2023-04-19T20:05:33.837Z,5.80
2023-04-19T20:08:19.685Z,5.47
2023-04-19T20:10:50.940Z,5.47
2023-04-19T20:13:20.590Z,4.07
2023-04-19T20:16:06.405Z,5.25
2023-04-19T20:18:35.518Z,6.30
2023-04-19T20:21:02.092Z,5.00
2023-04-19T20:23:37.753Z,4.53
2023-04-19T20:26:07.356Z,3.13
2023-04-19T20:28:38.643Z,5.05
2023-04-19T20:31:05.246Z,4.82
2023-04-19T20:33:34.038Z,4.15
2023-04-19T20:36:00.810Z,5.80
2023-04-19T20:38:27.274Z,6.22
2023-04-19T20:40:53.855Z,6.45
2023-04-19T20:43:22.331Z,4.53
2023-04-19T20:45:50.206Z,6.32
2023-04-19T20:48:31.816Z,6.68
2023-04-19T20:51:01.285Z,5.30
2023-04-19T20:53:27.815Z,3.85
2023-04-19T20:55:54.424Z,5.22
2023-04-19T20:58:20.944Z,5.97
2023-04-19T21:00:47.593Z,6.32
2023-04-19T21:03:22.903Z,3.38
2023-04-19T21:05:51.572Z,4.97
2023-04-19T21:08:20.473Z,5.68
2023-04-19T21:10:52.942Z,4.05
2023-04-19T21:13:21.512Z,3.53
2023-04-19T21:15:52.869Z,4.00
2023-04-19T21:18:23.981Z,5.03
2023-04-19T21:20:53.520Z,4.93
2023-04-19T21:23:23.470Z,6.22
2023-04-19T21:25:52.305Z,5.72
2023-04-19T21:28:24.753Z,4.45
2023-04-19T21:30:56.259Z,4.22
2023-04-19T21:33:27.329Z,6.43
2023-04-19T21:35:53.930Z,7.00
2023-04-19T21:38:23.484Z,4.65
2023-04-19T21:40:54.690Z,7.15
2023-04-19T21:43:27.131Z,5.13
2023-04-19T21:45:53.905Z,6.40
2023-04-19T21:48:23.335Z,6.63
2023-04-19T21:50:53.917Z,6.65
2023-04-19T21:55:52.219Z,4.38
2023-04-19T21:58:21.537Z,4.88
2023-04-19T22:00:56.966Z,7.18
2023-04-19T22:03:23.968Z,5.45
2023-04-19T22:05:57.609Z,6.38
2023-04-19T22:08:30.864Z,6.60
2023-04-19T22:10:58.685Z,7.25
2023-04-19T22:13:25.250Z,5.45
2023-04-19T22:15:54.551Z,9.27
2023-04-19T22:18:21.057Z,6.75
2023-04-19T22:20:57.092Z,7.20
2023-04-19T22:23:23.574Z,7.45
2023-04-19T22:25:53.188Z,7.53
2023-04-19T22:28:22.520Z,7.30
2023-04-19T22:30:52.124Z,6.03
2023-04-19T22:33:26.840Z,6.30
2023-04-19T22:35:54.721Z,8.48
2023-04-19T22:38:23.822Z,8.25
2023-04-19T22:40:54.899Z,7.25
2023-04-19T22:43:21.842Z,8.55
2023-04-19T22:45:51.292Z,10.63
2023-04-19T22:48:32.024Z,7.40
2023-04-19T22:51:03.078Z,10.65
2023-04-19T22:53:29.744Z,8.77
2023-04-19T22:55:56.250Z,8.90
2023-04-19T22:58:22.906Z,8.07
2023-04-19T23:00:51.365Z,7.15
2023-04-19T23:03:19.856Z,9.57
2023-04-19T23:05:46.511Z,11.55
2023-04-19T23:08:14.391Z,9.25
2023-04-19T23:10:43.141Z,7.63
2023-04-19T23:13:09.626Z,6.43
2023-04-19T23:15:38.119Z,7.38
2023-04-19T23:18:04.826Z,10.65
2023-04-19T23:20:31.479Z,10.15
2023-04-19T23:22:57.974Z,10.35
2023-04-19T23:25:25.872Z,10.38
2023-04-19T23:27:52.337Z,8.43
2023-04-19T23:30:21.721Z,9.13
2023-04-19T23:32:54.049Z,10.32
2023-04-19T23:35:22.602Z,7.78
2023-04-19T23:37:50.275Z,6.60
2023-04-19T23:40:16.962Z,9.55
2023-04-19T23:42:52.156Z,9.80
2023-04-19T23:45:18.721Z,9.18
2023-04-19T23:47:45.206Z,9.38
2023-04-19T23:50:11.827Z,7.20
2023-04-19T23:52:38.273Z,8.75
2023-04-19T23:55:05.488Z,7.65
2023-04-19T23:57:33.840Z,7.93
